createdAt,value
2019-05-09T00:02:15.663Z,68.93
2019-05-09T00:04:44.135Z,70.07
2019-05-09T00:07:14.008Z,70.31
2019-05-09T00:09:44.097Z,70.57
2019-05-09T00:12:14.263Z,70.73
2019-05-09T00:14:43.374Z,70.61
2019-05-09T00:17:13.825Z,70.28
2019-05-09T00:19:43.723Z,70.67
2019-05-09T00:22:13.705Z,70.95
2019-05-09T00:24:41.803Z,71.70
2019-05-09T00:27:10.048Z,72.62
2019-05-09T00:29:44.639Z,72.85
2019-05-09T00:32:28.844Z,73.71
2019-05-09T00:35:03.887Z,74.12
2019-05-09T00:37:53.563Z,73.38
2019-05-09T00:40:23.856Z,73.49
2019-05-09T00:42:53.299Z,73.67
2019-05-09T00:45:56.233Z,73.95
2019-05-09T00:48:29.394Z,74.02
2019-05-09T00:50:57.409Z,74.06
2019-05-09T00:53:25.352Z,74.86
2019-05-09T00:55:53.299Z,75.04
2019-05-09T00:58:24.157Z,75.60
2019-05-09T01:00:53.329Z,75.65
2019-05-09T01:03:23.451Z,75.22
2019-05-09T01:05:51.266Z,75.01
2019-05-09T01:08:19.393Z,75.47
2019-05-09T01:10:47.376Z,76.42
2019-05-09T01:13:17.052Z,76.74
2019-05-09T01:15:45.179Z,77.02
2019-05-09T01:18:13.567Z,76.74
2019-05-09T01:20:41.501Z,77.32
2019-05-09T01:23:14.467Z,77.29
2019-05-09T01:25:43.636Z,77.60
2019-05-09T01:28:13.865Z,77.88
2019-05-09T01:30:43.772Z,77.86
2019-05-09T01:33:49.144Z,77.52
2019-05-09T01:36:17.219Z,78.45
2019-05-09T01:38:45.294Z,78.83
2019-05-09T01:41:26.823Z,78.96
2019-05-09T01:43:44.297Z,79.05
2019-05-09T01:46:14.447Z,78.93
2019-05-09T01:48:43.187Z,78.15
2019-05-09T01:51:13.700Z,77.81
2019-05-09T01:53:47.807Z,77.92
2019-05-09T01:56:15.605Z,78.16
2019-05-09T01:58:43.667Z,77.99
2019-05-09T02:01:13.461Z,77.60
2019-05-09T02:03:43.710Z,78.06
2019-05-09T02:06:13.692Z,78.12
2019-05-09T02:08:43.816Z,78.40
2019-05-09T02:11:13.230Z,77.98
2019-05-09T02:13:41.567Z,78.01
2019-05-09T02:16:24.140Z,77.91
2019-05-09T02:19:03.937Z,77.87
2019-05-09T02:21:31.695Z,77.79
2019-05-09T02:23:59.621Z,77.35
2019-05-09T02:26:27.522Z,77.18
2019-05-09T02:28:56.603Z,77.28
2019-05-09T02:31:24.852Z,77.26
2019-05-09T02:33:54.140Z,78.44
2019-05-09T02:36:22.440Z,77.95
2019-05-09T02:38:50.414Z,77.27
2019-05-09T02:41:19.693Z,77.61
2019-05-09T02:43:49.562Z,77.71
2019-05-09T02:46:33.382Z,76.80
2019-05-09T02:49:01.530Z,76.26
2019-05-09T02:51:29.579Z,76.11
2019-05-09T02:53:58.514Z,76.42
2019-05-09T02:56:29.516Z,76.64
2019-05-09T02:59:18.964Z,77.23
2019-05-09T03:02:12.969Z,78.28
2019-05-09T03:04:41.063Z,78.81
2019-05-09T03:07:09.889Z,78.04
2019-05-09T03:09:38.910Z,77.64
2019-05-09T03:12:22.963Z,77.77
2019-05-09T03:14:38.482Z,78.17
2019-05-09T03:17:08.764Z,77.53
2019-05-09T03:19:38.631Z,77.57
2019-05-09T03:22:11.955Z,77.72
2019-05-09T03:24:39.909Z,77.95
2019-05-09T03:27:14.029Z,77.99
2019-05-09T03:29:49.175Z,78.33
2019-05-09T03:32:19.569Z,78.07
2019-05-09T03:34:47.786Z,78.40
2019-05-09T03:37:17.645Z,78.53
2019-05-09T03:39:47.823Z,79.38
2019-05-09T03:42:20.707Z,78.45
2019-05-09T03:44:47.667Z,78.91
2019-05-09T03:47:21.782Z,79.49
2019-05-09T03:50:08.442Z,79.94
2019-05-09T03:52:37.287Z,80.32
2019-05-09T03:55:07.330Z,81.73
2019-05-09T03:57:38.471Z,81.99
2019-05-09T04:00:07.703Z,82.52
2019-05-09T04:02:35.792Z,83.12
2019-05-09T04:07:44.079Z,83.23
2019-05-09T04:10:12.131Z,82.96
2019-05-09T04:12:52.778Z,83.32
2019-05-09T04:15:10.330Z,83.35
2019-05-09T04:17:42.691Z,83.52
2019-05-09T04:20:11.908Z,85.14
2019-05-09T04:22:39.846Z,85.84
2019-05-09T04:25:08.766Z,85.00
2019-05-09T04:27:37.515Z,85.28
2019-05-09T04:30:08.694Z,86.06
2019-05-09T04:32:35.155Z,85.95
2019-05-09T04:35:03.471Z,86.29
2019-05-09T04:37:31.522Z,86.49
2019-05-09T04:40:03.275Z,86.34
2019-05-09T04:42:29.473Z,86.81
2019-05-09T04:45:03.492Z,88.11
2019-05-09T04:47:33.791Z,88.02
2019-05-09T04:50:01.535Z,88.81
2019-05-09T04:52:29.678Z,89.91
2019-05-09T04:54:57.712Z,89.75
2019-05-09T04:57:27.755Z,90.00
2019-05-09T04:59:57.407Z,89.62
2019-05-09T05:02:34.716Z,88.76
2019-05-09T05:05:02.790Z,90.05
2019-05-09T05:07:30.911Z,89.58
2019-05-09T05:09:58.922Z,90.03
2019-05-09T05:12:27.758Z,90.39
2019-05-09T05:14:57.942Z,90.26
2019-05-09T05:17:30.231Z,90.98
2019-05-09T05:19:57.858Z,91.00
2019-05-09T05:22:40.915Z,91.52
2019-05-09T05:25:09.470Z,91.14
2019-05-09T05:27:38.276Z,90.92
2019-05-09T05:30:07.570Z,91.11
2019-05-09T05:32:44.629Z,91.35
2019-05-09T05:35:22.802Z,91.72
2019-05-09T05:37:51.904Z,91.08
2019-05-09T05:40:20.038Z,90.51
2019-05-09T05:42:48.109Z,91.01
2019-05-09T05:45:18.106Z,91.56
2019-05-09T05:47:58.911Z,91.61
2019-05-09T05:50:28.083Z,91.61
2019-05-09T05:52:57.766Z,91.46
2019-05-09T05:55:27.429Z,91.52
2019-05-09T05:57:57.717Z,91.90
2019-05-09T06:00:28.353Z,91.87
2019-05-09T06:02:58.581Z,92.56
2019-05-09T06:05:27.832Z,92.93
2019-05-09T06:07:57.768Z,93.11
2019-05-09T06:10:28.787Z,93.04
2019-05-09T06:12:57.537Z,92.64
2019-05-09T06:15:25.628Z,92.85
2019-05-09T06:17:53.432Z,92.25
2019-05-09T06:20:21.985Z,92.41
2019-05-09T06:22:50.206Z,91.94
2019-05-09T06:25:20.560Z,92.42
2019-05-09T06:27:48.325Z,91.87
2019-05-09T06:30:28.275Z,91.95
2019-05-09T06:32:58.053Z,91.70
2019-05-09T06:35:28.199Z,91.19
2019-05-09T06:37:58.443Z,89.91
2019-05-09T06:40:28.470Z,89.03
2019-05-09T06:42:58.938Z,89.00
2019-05-09T06:45:42.770Z,88.57
2019-05-09T06:48:11.383Z,88.39
2019-05-09T06:50:39.456Z,89.70
2019-05-09T06:53:08.139Z,90.03
2019-05-09T06:55:38.395Z,90.31
2019-05-09T06:58:23.998Z,89.72
2019-05-09T07:00:59.359Z,89.72
2019-05-09T07:03:28.396Z,90.21
2019-05-09T07:06:11.012Z,90.12
2019-05-09T07:08:44.529Z,90.72
2019-05-09T07:11:12.585Z,90.00
2019-05-09T07:13:41.146Z,90.16
2019-05-09T07:16:09.093Z,90.00
2019-05-09T07:18:38.256Z,90.37
2019-05-09T07:21:08.248Z,89.32
2019-05-09T07:23:37.328Z,89.42
2019-05-09T07:26:13.548Z,89.82
2019-05-09T07:28:41.804Z,89.86
2019-05-09T07:31:24.658Z,89.62
2019-05-09T07:34:27.734Z,90.23
2019-05-09T07:36:58.088Z,89.94
2019-05-09T07:39:27.647Z,90.45
2019-05-09T07:41:55.513Z,90.41
2019-05-09T07:44:23.421Z,90.25
2019-05-09T07:46:59.121Z,90.48
2019-05-09T07:49:28.349Z,89.94
2019-05-09T07:51:59.103Z,88.33
2019-05-09T07:54:29.225Z,89.14
2019-05-09T07:56:57.986Z,89.26
2019-05-09T07:59:27.419Z,88.60
2019-05-09T08:01:58.093Z,88.51
2019-05-09T08:04:28.343Z,88.21
2019-05-09T08:06:57.716Z,88.05
2019-05-09T08:09:28.085Z,88.30
2019-05-09T08:11:58.543Z,87.85
2019-05-09T08:14:28.125Z,86.98
2019-05-09T08:16:58.044Z,86.44
2019-05-09T08:19:27.501Z,87.77
2019-05-09T08:21:57.533Z,87.59
2019-05-09T08:24:27.805Z,87.37
2019-05-09T08:26:58.105Z,87.59
2019-05-09T08:29:28.199Z,86.30
2019-05-09T08:31:58.262Z,86.66
2019-05-09T08:34:28.286Z,86.70
2019-05-09T08:36:58.036Z,85.72
2019-05-09T08:39:27.649Z,86.62
2019-05-09T08:41:58.967Z,87.43
2019-05-09T08:44:30.402Z,87.10
2019-05-09T08:46:57.424Z,86.78
2019-05-09T08:49:31.441Z,86.33
2019-05-09T08:52:15.745Z,85.84
2019-05-09T08:54:40.978Z,85.26
2019-05-09T08:57:09.042Z,84.56
2019-05-09T08:59:38.312Z,85.65
2019-05-09T09:02:16.594Z,83.79
2019-05-09T09:04:38.377Z,83.45
2019-05-09T09:07:08.409Z,82.72
2019-05-09T09:09:37.860Z,82.63
2019-05-09T09:12:25.284Z,82.93
2019-05-09T09:14:38.468Z,81.20
2019-05-09T09:17:07.886Z,82.77
2019-05-09T09:19:38.390Z,81.00
2019-05-09T09:22:08.613Z,81.29
2019-05-09T09:24:37.552Z,81.33
2019-05-09T09:27:07.707Z,81.59
2019-05-09T09:29:38.062Z,80.60
2019-05-09T09:32:08.034Z,81.94
2019-05-09T09:34:37.800Z,80.30
2019-05-09T09:37:10.319Z,80.13
2019-05-09T09:39:43.296Z,79.68
2019-05-09T09:42:08.761Z,79.82
2019-05-09T09:44:35.575Z,79.48
2019-05-09T09:47:03.804Z,80.39
2019-05-09T09:49:31.886Z,79.92
2019-05-09T09:52:00.211Z,79.80
2019-05-09T09:54:28.257Z,80.96
2019-05-09T09:56:58.522Z,78.73
2019-05-09T09:59:37.782Z,76.45
2019-05-09T10:02:09.973Z,75.93
2019-05-09T10:04:37.543Z,78.10
2019-05-09T10:07:05.315Z,78.27
2019-05-09T10:09:33.292Z,76.75
2019-05-09T10:12:01.293Z,76.78
2019-05-09T10:14:33.035Z,77.60
2019-05-09T10:17:21.936Z,75.79
2019-05-09T10:20:14.888Z,75.25
2019-05-09T10:22:46.457Z,73.94
2019-05-09T10:25:13.093Z,74.99
2019-05-09T10:27:41.499Z,73.39
2019-05-09T10:30:10.013Z,75.52
2019-05-09T10:32:38.444Z,76.62
2019-05-09T10:35:08.786Z,76.82
2019-05-09T10:37:39.258Z,75.78
2019-05-09T10:40:06.538Z,76.73
2019-05-09T10:42:43.417Z,74.99
2019-05-09T10:45:40.790Z,75.84
2019-05-09T10:48:09.026Z,74.95
2019-05-09T10:50:43.919Z,74.57
2019-05-09T10:53:08.042Z,77.02
2019-05-09T10:55:38.476Z,77.88
2019-05-09T10:58:08.144Z,76.70
2019-05-09T11:00:39.293Z,76.50
2019-05-09T11:03:08.706Z,77.54
2019-05-09T11:05:36.786Z,77.32
2019-05-09T11:08:04.780Z,77.66
2019-05-09T11:10:33.110Z,79.08
2019-05-09T11:13:01.113Z,80.18
2019-05-09T11:15:29.197Z,79.06
2019-05-09T11:17:57.787Z,81.36
2019-05-09T11:20:28.426Z,81.84
2019-05-09T11:22:58.203Z,82.08
2019-05-09T11:25:27.756Z,81.70
2019-05-09T11:28:10.075Z,81.91
2019-05-09T11:30:27.959Z,80.43
2019-05-09T11:32:55.616Z,81.02
2019-05-09T11:35:23.793Z,81.12
2019-05-09T11:37:51.872Z,79.33
2019-05-09T11:40:19.886Z,79.37
2019-05-09T11:42:48.340Z,78.22
2019-05-09T11:45:17.944Z,78.97
2019-05-09T11:47:46.744Z,80.26
2019-05-09T11:50:14.864Z,81.27
2019-05-09T11:52:42.838Z,81.60
2019-05-09T11:55:28.672Z,80.40
2019-05-09T11:57:40.747Z,79.63
2019-05-09T12:00:09.371Z,79.30
2019-05-09T12:02:38.473Z,78.20
2019-05-09T12:05:08.798Z,78.39
2019-05-09T12:07:37.928Z,78.45
2019-05-09T12:10:07.864Z,78.33
2019-05-09T12:12:38.844Z,77.77
2019-05-09T12:15:08.820Z,79.01
2019-05-09T12:17:51.002Z,78.62
2019-05-09T12:20:12.561Z,77.75
2019-05-09T12:22:37.623Z,77.86
2019-05-09T12:25:08.388Z,78.22
2019-05-09T12:27:35.523Z,79.37
2019-05-09T12:30:03.585Z,79.11
2019-05-09T12:32:31.798Z,77.33
2019-05-09T12:34:59.718Z,79.61
2019-05-09T12:37:28.223Z,77.22
2019-05-09T12:39:58.392Z,75.83
2019-05-09T12:42:28.926Z,76.19
2019-05-09T12:44:55.906Z,75.23
2019-05-09T12:47:23.545Z,78.38
2019-05-09T12:49:51.577Z,77.33
2019-05-09T12:52:19.631Z,75.78
2019-05-09T12:54:48.285Z,78.34
2019-05-09T12:57:19.210Z,78.81
2019-05-09T12:59:52.308Z,79.86
2019-05-09T13:02:17.783Z,80.31
2019-05-09T13:04:47.622Z,76.27
2019-05-09T13:07:15.435Z,76.41
2019-05-09T13:09:43.648Z,77.02
2019-05-09T13:12:11.693Z,78.20
2019-05-09T13:14:39.773Z,79.09
2019-05-09T13:17:30.157Z,79.73
2019-05-09T13:19:58.648Z,77.99
2019-05-09T13:22:28.408Z,78.66
2019-05-09T13:24:58.660Z,80.05
2019-05-09T13:27:28.457Z,80.49
2019-05-09T13:29:57.081Z,78.92
2019-05-09T13:32:24.911Z,77.21
2019-05-09T13:34:52.830Z,77.96
2019-05-09T13:37:20.667Z,79.31
2019-05-09T13:39:48.675Z,80.27
2019-05-09T13:42:19.613Z,77.55
2019-05-09T13:44:47.545Z,79.25
2019-05-09T13:47:17.844Z,79.60
2019-05-09T13:49:45.427Z,78.36
2019-05-09T13:52:13.374Z,78.00
2019-05-09T13:54:41.304Z,78.00
2019-05-09T13:57:09.371Z,77.97
2019-05-09T13:59:37.582Z,78.00
2019-05-09T14:02:05.873Z,77.86
2019-05-09T14:04:33.886Z,77.99
2019-05-09T14:07:02.011Z,76.59
2019-05-09T14:09:29.940Z,77.39
2019-05-09T14:11:58.910Z,77.82
2019-05-09T14:14:28.144Z,77.00
2019-05-09T14:16:58.996Z,76.08
2019-05-09T14:19:39.864Z,75.58
2019-05-09T14:21:58.591Z,76.46
2019-05-09T14:24:27.929Z,76.96
2019-05-09T14:26:58.264Z,76.94
2019-05-09T14:29:31.641Z,77.72
2019-05-09T14:31:57.319Z,75.83
2019-05-09T14:34:25.431Z,76.41
2019-05-09T14:36:53.490Z,75.57
2019-05-09T14:39:23.021Z,74.92
2019-05-09T14:41:51.396Z,73.75
2019-05-09T14:44:19.567Z,74.49
2019-05-09T14:46:48.163Z,75.20
2019-05-09T14:49:17.571Z,73.03
2019-05-09T14:51:46.780Z,72.85
2019-05-09T14:54:14.736Z,72.95
2019-05-09T14:56:42.900Z,73.88
2019-05-09T14:59:10.905Z,73.70
2019-05-09T15:01:43.265Z,74.21
2019-05-09T15:04:09.152Z,74.38
2019-05-09T15:06:37.106Z,74.36
2019-05-09T15:09:08.234Z,75.35
2019-05-09T15:11:39.463Z,75.83
2019-05-09T15:14:08.329Z,75.37
2019-05-09T15:16:38.866Z,75.53
2019-05-09T15:19:08.367Z,75.32
2019-05-09T15:21:38.177Z,75.20
2019-05-09T15:24:08.893Z,76.07
2019-05-09T15:26:37.372Z,74.94
2019-05-09T15:29:07.943Z,74.30
2019-05-09T15:31:35.940Z,74.65
2019-05-09T15:34:05.060Z,75.90
2019-05-09T15:36:32.955Z,75.03
2019-05-09T15:39:00.956Z,76.42
2019-05-09T15:41:29.057Z,76.07
2019-05-09T15:43:57.942Z,76.01
2019-05-09T15:46:31.846Z,75.45
2019-05-09T15:48:59.912Z,76.09
2019-05-09T15:51:28.061Z,73.57
2019-05-09T15:53:57.739Z,73.44
2019-05-09T15:56:28.820Z,73.56
2019-05-09T15:58:58.005Z,72.05
2019-05-09T16:01:28.050Z,72.67
2019-05-09T16:03:56.302Z,72.64
2019-05-09T16:06:24.553Z,72.51
2019-05-09T16:08:52.478Z,73.25
2019-05-09T16:11:20.692Z,73.23
2019-05-09T16:13:48.730Z,72.79
2019-05-09T16:16:17.557Z,72.15
2019-05-09T16:18:48.340Z,72.01
2019-05-09T16:21:15.905Z,71.75
2019-05-09T16:23:43.882Z,72.11
2019-05-09T16:26:11.994Z,72.22
2019-05-09T16:28:39.891Z,72.62
2019-05-09T16:31:07.952Z,72.56
2019-05-09T16:33:35.804Z,73.44
2019-05-09T16:36:03.696Z,72.80
2019-05-09T16:38:42.075Z,73.17
2019-05-09T16:41:01.578Z,73.74
2019-05-09T16:43:29.813Z,73.52
2019-05-09T16:45:58.250Z,74.33
2019-05-09T16:48:27.653Z,74.42
2019-05-09T16:51:01.356Z,73.54
2019-05-09T16:53:27.769Z,74.19
2019-05-09T16:55:57.701Z,74.18
2019-05-09T16:58:27.451Z,74.98
2019-05-09T17:00:55.580Z,74.19
2019-05-09T17:03:23.800Z,73.87
2019-05-09T17:05:51.819Z,73.98
2019-05-09T17:08:19.937Z,73.32
2019-05-09T17:10:48.797Z,73.92
2019-05-09T17:13:18.384Z,75.57
2019-05-09T17:15:46.696Z,75.61
2019-05-09T17:18:15.136Z,76.76
2019-05-09T17:21:15.199Z,76.58
2019-05-09T17:23:32.605Z,76.47
2019-05-09T17:26:00.725Z,76.41
2019-05-09T17:28:29.848Z,77.42
2019-05-09T17:30:58.117Z,77.90
2019-05-09T17:33:28.785Z,78.78
2019-05-09T17:35:57.777Z,79.17
2019-05-09T17:38:28.997Z,81.00
2019-05-09T17:40:57.865Z,82.12
2019-05-09T17:43:27.827Z,82.85
2019-05-09T17:45:58.205Z,82.44
2019-05-09T17:48:28.488Z,82.98
2019-05-09T17:50:57.901Z,83.03
2019-05-09T17:53:28.620Z,83.33
2019-05-09T17:55:58.368Z,83.58
2019-05-09T17:58:32.837Z,83.85
2019-05-09T18:00:57.709Z,83.68
2019-05-09T18:03:25.593Z,84.10
2019-05-09T18:05:53.621Z,84.84
2019-05-09T18:08:21.686Z,85.08
2019-05-09T18:10:49.685Z,85.28
2019-05-09T18:13:23.655Z,86.31
2019-05-09T18:15:48.357Z,87.64
2019-05-09T18:18:18.509Z,88.44
2019-05-09T18:20:46.290Z,88.62
2019-05-09T18:23:14.209Z,88.46
2019-05-09T18:25:42.251Z,88.84
2019-05-09T18:28:10.334Z,89.74
2019-05-09T18:30:38.932Z,89.93
2019-05-09T18:33:20.303Z,89.31
2019-05-09T18:35:48.341Z,89.41
2019-05-09T18:38:23.839Z,89.64
2019-05-09T18:40:51.988Z,89.46
2019-05-09T18:43:20.101Z,89.00
2019-05-09T18:45:48.267Z,88.91
2019-05-09T18:48:18.529Z,89.21
2019-05-09T18:50:46.133Z,90.06
2019-05-09T18:53:14.134Z,90.75
2019-05-09T18:55:42.046Z,90.74
2019-05-09T18:58:10.150Z,90.60
2019-05-09T19:01:00.372Z,90.67
2019-05-09T19:03:30.468Z,90.79
2019-05-09T19:06:00.034Z,90.66
2019-05-09T19:08:28.158Z,91.15
2019-05-09T19:10:56.304Z,90.92
2019-05-09T19:13:24.252Z,91.06
2019-05-09T19:16:02.280Z,91.42
2019-05-09T19:18:46.341Z,91.43
2019-05-09T19:21:18.263Z,91.39
2019-05-09T19:23:46.222Z,91.45
2019-05-09T19:26:32.030Z,91.83
2019-05-09T19:28:59.916Z,91.71
2019-05-09T19:31:28.144Z,91.80
2019-05-09T19:33:57.051Z,91.94
2019-05-09T19:36:25.127Z,92.60
2019-05-09T19:38:52.881Z,92.70
2019-05-09T19:41:20.957Z,92.30
2019-05-09T19:43:48.908Z,92.49
2019-05-09T19:46:17.195Z,92.13
2019-05-09T19:48:45.237Z,92.43
2019-05-09T19:51:14.607Z,92.99
2019-05-09T19:53:42.514Z,93.33
2019-05-09T19:56:10.513Z,93.70
2019-05-09T19:58:38.439Z,93.99
2019-05-09T20:01:06.476Z,93.96
2019-05-09T20:03:34.170Z,93.81
2019-05-09T20:06:02.377Z,94.19
2019-05-09T20:08:34.012Z,94.34
2019-05-09T20:11:29.175Z,94.31
2019-05-09T20:14:17.075Z,94.72
2019-05-09T20:16:48.098Z,94.70
2019-05-09T20:19:16.246Z,94.79
2019-05-09T20:21:44.296Z,94.62
2019-05-09T20:24:12.286Z,94.67
2019-05-09T20:26:40.338Z,94.42
2019-05-09T20:29:08.380Z,94.22
2019-05-09T20:31:36.372Z,94.51
2019-05-09T20:34:04.465Z,94.73
2019-05-09T20:36:32.419Z,94.84
2019-05-09T20:39:00.324Z,95.05
2019-05-09T20:41:28.347Z,94.82
2019-05-09T20:43:56.268Z,94.66
2019-05-09T20:46:24.297Z,94.84
2019-05-09T20:48:52.367Z,95.07
2019-05-09T20:51:20.470Z,95.25
2019-05-09T20:53:48.532Z,95.67
2019-05-09T20:56:16.569Z,95.64
2019-05-09T20:58:44.486Z,95.09
2019-05-09T21:01:12.406Z,95.48
2019-05-09T21:03:40.107Z,95.45
2019-05-09T21:06:08.321Z,95.25
2019-05-09T21:08:36.388Z,95.01
2019-05-09T21:11:04.610Z,94.91
2019-05-09T21:13:47.530Z,94.76
2019-05-09T21:16:02.878Z,95.06
2019-05-09T21:18:31.062Z,95.51
2019-05-09T21:20:59.154Z,95.79
2019-05-09T21:23:27.146Z,95.92
2019-05-09T21:25:55.148Z,96.24
2019-05-09T21:28:23.242Z,96.56
2019-05-09T21:30:51.296Z,96.95
2019-05-09T21:33:19.250Z,96.39
2019-05-09T21:35:47.671Z,95.69
2019-05-09T21:38:16.669Z,95.85
2019-05-09T21:40:44.910Z,96.34
2019-05-09T21:43:12.772Z,96.10
2019-05-09T21:45:40.735Z,96.06
2019-05-09T21:48:08.851Z,96.10
2019-05-09T21:50:36.788Z,96.25
2019-05-09T21:53:04.876Z,96.39
2019-05-09T21:55:32.649Z,96.60
2019-05-09T21:58:00.644Z,96.49
2019-05-09T22:00:33.732Z,96.43
2019-05-09T22:03:01.833Z,96.11
2019-05-09T22:05:29.948Z,95.73
2019-05-09T22:07:58.887Z,95.97
2019-05-09T22:10:27.168Z,96.03
2019-05-09T22:12:55.313Z,96.24
2019-05-09T22:15:23.207Z,96.69
2019-05-09T22:17:51.254Z,97.20
2019-05-09T22:20:19.549Z,97.16
2019-05-09T22:22:47.561Z,97.08
2019-05-09T22:25:15.451Z,96.61
2019-05-09T22:27:43.512Z,96.20
2019-05-09T22:30:13.413Z,96.72
2019-05-09T22:32:41.577Z,96.78
2019-05-09T22:35:09.783Z,96.94
2019-05-09T22:37:37.442Z,96.82
2019-05-09T22:40:05.445Z,96.77
2019-05-09T22:42:33.385Z,97.18
2019-05-09T22:45:04.103Z,97.39
2019-05-09T22:47:32.189Z,97.76
2019-05-09T22:50:00.370Z,96.83
2019-05-09T22:52:28.337Z,96.96
2019-05-09T22:54:56.271Z,96.75
2019-05-09T22:57:23.937Z,96.76
2019-05-09T22:59:51.928Z,97.09
2019-05-09T23:02:20.022Z,97.30
2019-05-09T23:04:47.872Z,97.58
2019-05-09T23:07:15.753Z,97.10
2019-05-09T23:09:43.583Z,96.88
2019-05-09T23:12:11.503Z,96.75
2019-05-09T23:14:39.410Z,97.08
2019-05-09T23:17:07.937Z,97.19
2019-05-09T23:19:35.967Z,97.33
2019-05-09T23:22:04.592Z,97.55
2019-05-09T23:24:33.459Z,97.54
2019-05-09T23:27:01.373Z,97.58
2019-05-09T23:29:29.420Z,97.87
2019-05-09T23:32:03.788Z,97.82
2019-05-09T23:34:31.801Z,98.08
2019-05-09T23:37:00.773Z,97.48
2019-05-09T23:39:32.838Z,97.29
2019-05-09T23:42:00.919Z,97.27
2019-05-09T23:44:28.807Z,97.35
2019-05-09T23:46:56.826Z,97.00
2019-05-09T23:49:24.886Z,97.68
2019-05-09T23:51:52.884Z,98.03
2019-05-09T23:54:47.807Z,97.94
2019-05-09T23:57:27.492Z,97.80
